NIVEL DE RIESGO

Temporalmente no se publicará el nivel de riesgo meteorológico.

RELACIONES PÚBLICAS

27/12/2017PERSPECTIVAS CLIMÁTICAS PARA ENERO – FEBRERO - MARZO 2017  Se adjunta el Informe de Perspectivas Climáticas para el trimestre Enero, Febrero y Marzo del 2017.http://meteorologia.gub.uy/ServCli/tendenciasClimaticas

Productos aeronáuticos

  • SIGMET
  • METAR / SPECI
  • TAF
  • AIREP
  • Aviso de aeródromo
  • Pronárea
  • Carta superficie
Fecha : 19/02/2017
FTUY 03 SUMU 19 11 30
SUMU TAF AGRUPACION DE TRABAJADORES DE METEOROLOGIA EN CONFLICTO.
SULS TAF AGRUPACION DE TRABAJADORES DE METEOROLOGIA EN CONFLICTO.
SUAA TAF AGRUPACION DE TRABAJADORES DE METEOROLOGIA EN CONFLICTO.
SUCA TAF AGRUPACION DE TRABAJADORES DE METEOROLOGIA EN CONFLICTO.
SUDU TAF AGRUPACION DE TRABAJADORES DE METEOROLOGIA EN CONFLICTO.
SUSO TAF AGRUPACION DE TRABAJADORES DE METEOROLOGIA EN CONFLICTO.
SURV TAF AGRUPACION DE TRABAJADORES DE METEOROLOGIA EN CONFLICTO.

Predictor : Ramón Alvariño


Mensajes TAF vigentes - Internacionales


Argentina
TAF AMD SAAR 190940Z 1910/2006 VRB03KT 0500 FG NSC TX29/1918Z TN16/1910Z BECMG 1912/1914 CAVOK BECMG 1916/1918 05010KT
TAF AMD SACO 190520Z 1906/2006 36003KT 0400 FG OVC002 TX30/1719Z TN19/1810Z BECMG 1911/1914 05010KT 9999 BKN030 FEW040TCU
TAF SAEZ 190500Z 1906/2006 29005KT 8000 NSC TX32/1918Z TN18/1909Z TEMPO 1906/1911 VRB03KT 2000 MIFG BECMG 1916/1918 04010KT CAVOK
TAF SAME 190500Z 1906/2006 05005KT 9999 SCT040TCU FEW050CB TN20/1910Z TX32/1820Z
TAF SABE 190500Z 1906/2006 27003KT CAVOK TX29/1918Z TN20/1910Z BECMG 1908/1910 02005KT PROB30 1908/1911 7000 SCT010 BECMG 1912/1914 07010KT CAVOK
Bolivia
TAF SLLP 190400Z 1906/2006 08006KT 3000E VCFG FEW002 SCT013 TX16/ 1920Z TN04/1910Z BECMG 1912/1914 14008KT 9999 NSW SCT015 SCT070 TEMPO 1917/1921 04012KT 8000 VCTSSH SCT017 FEW020CB
Brasil
TAF SBBR 190400Z 1906/2006 00000KT CAVOK TN20/1907Z TX30/1918Z BECMG 1915/1917 BKN030 BECMG 1918/1920 16007KT SCT030 PROB30 1918/1923 VCSH SCT030 FEW040TCU BECMG 2000/2002 22005KT FEW030 RMK PDS
TAF SBFI 190200Z 1906/2006 07002KT CAVOK TN25/1909Z TX34/1918Z BECMG 1914/1916 9999 SCT030 PROB30 TEMPO 1916/1918 36002KT VCSH SCT030 FEW040TCU BEC MG 1922/1924 16002KT CAVOK RMK PDV
TAF SBPA 190200Z 1906/2006 10008KT 9999 FEW040 TN24/1908Z TX32/1918Z PROB30 TEMPO 1906/1910 32004KT BECMG 1915/1917 SCT030 FEW045TCU PROB40 TEMP O 1917/1920 5000 TSRA SCT030 FEW040CB BECMG 1922/1924 12006KT BECMG 20 02/2004 12004KT FEW040 RMK PDV
TAF SBFL 190200Z 1906/2006 03005KT 9999 SCT030 TN25/1907Z TX32/1917Z PROB30 1906/1911 36010KT BKN008 BECMG 1912/1914 08004KT PROB30 1920/1924 80 00 VCTS BKN020 FEW040CB RMK PDV
TAF SBRJ 190200Z 1906/1918 03005KT CAVOK TN24/1909Z TX33/1918Z BECMG 1908/1911 35005KT BECMG 1913/1915 17015KT FEW025 RMK PHC
TAF SBGR 190100Z 1906/2012 00000KT CAVOK TN19/1908Z TX33/1917Z BECMG 1907/1909 05005KT BECMG 1913/1915 32010KT FEW040 PROB30 TEMPO 1919/1921 25010KT TSRA SCT040 FEW045CB BECMG 1921/1923 15005KT CAVOK BECMG 2000/2002 11002KT BECMG 2007/2009 06004KT RMK PHG
TAF SBSP 190100Z 1906/2006 00000KT CAVOK TN21/1908Z TX33/1917Z BECMG 1908/1910 05005KT BECMG 1913/1915 32010KT FEW040 PROB30 1920/1921 15010KT TSRA SCT040 FEW045CB BECMG 1921/1923 15005KT CAVOK BECMG 2001/2003 11005KT RMK PHG
Colombia
TAF SKBO AMD 190600Z 1906/2006 VRB02KT 2000 BCFG FEW020 TEMPO 1907/1913 0200 FG VV/// BECMG 1916/1918 28012KT SCT020 TX21/1918Z TN05/1911Z
Chile
TAF SCCI 190423Z 1906/2006 33010KT 9999 BKN050 TN05/1910Z TX13/1918Z TEMPO 1906/1909 03010KT 8000 -RA FEW010 BKN025 BECMG 1908/1910 29015G25KT FEW040 BECMG 1915/1917 30020G35KT TEMPO 1914/1920 9000 -SHRA BKN025 BECMG 1923/2001 29015G25KT
TAF SCEL 190407Z 1906/2006 15005KT CAVOK TX32/1919Z TN12/1910Z TEMPO 1908/1914 VRB02KT 7000 NSC BECMG 1914/1916 20008KT BECMG 1916/1918 22014KT BECMG 2002/2004 15002KT
Ecuador
SEQM 190435Z 1906/2006 00000KT 6000 BCFG SCT005 OVC020 TEMPO 1908/1911 4000 SCT004 OVC016 FM191200 VRB03KT 9999 SCT030 BKN100 FM191800 36012KT 9999 BKN030 SCT100 TEMPO 1920/1922 RA FM200000 03004KT 9999 FEW010 SCT026 TX23/1919Z TN11/1911Z
EEUU
KMIA 190912Z 1909/2006 VRB03KT P6SM FEW015 BKN250 TEMPO 1909/1912 VRB02KT 4SM BR FEW005 SCT010 SCT250 FM191400 26006KT P6SM VCSH SCT040 BKN100 BKN250 FM191800 26009KT P6SM SCT030 BKN050 BKN250 FM192100 29007KT P6SM FEW030 SCT100 SCT250
KDCA 190850Z 1909/2006 VRB03KT P6SM OVC060 FM191400 31008KT P6SM BKN070 FM191700 30009KT P6SM SCT140
KIAD 190850Z 1909/2012 VRB03KT P6SM OVC070 FM191300 30008KT P6SM BKN070 FM191600 31011G19KT P6SM SCT100 FM200000 31007KT P6SM FEW250
KJFK 190830Z 1909/2012 25008KT P6SM BKN250 FM191100 27009KT P6SM SCT120 BKN250 FM191300 29009KT P6SM SCT250 FM191700 31011KT P6SM SCT250
KLGA 190830Z 1909/2006 24009KT P6SM BKN250 FM191100 27009KT P6SM SCT120 BKN250 FM191300 29009KT P6SM SCT250 FM191700 31011KT P6SM SCT250
España
TAF LEBL 190500Z 1906/2006 34008KT 9999 SCT020 TX16/1912Z TN08/2006Z PROB30 TEMPO 1908/1916 34012G22KT BECMG 1910/1912 09008KT BECMG 1918/1920 31004KT
TAF LEMD 190500Z 1906/2012 VRB05KT CAVOK TX15/1915Z TN01/2007Z TEMPO 1906/1918 02010KT TEMPO 1906/1911 BKN030
Francia
TAF AMD LFPO 190819Z 1908/2012 VRB03KT 4000 BR SCT004 TEMPO 1908/1910 0700 BCFG BKN003 PROB30 1908/1910 0100 FG VV/// BECMG 1910/1912 24006KT 9999 NSW SCT005 BECMG 1920/1923 SCT013 BKN023 BECMG 2003/2006 BKN006 TEMPO 2006/2012 2000 RA OVC004
Inglaterra
TAF AMD EGLL 190545Z 1906/2012 25007KT 3500 BR SCT003 BKN022 PROB40 TEMPO 1906/1908 BKN004 PROB30 TEMPO 1908/1911 7000 BKN008 BECMG 1909/1912 9999 NSW BECMG 1920/1923 7000 BKN007 PROB40 TEMPO 1923/2008 4000 -RADZ BR BKN004 BECMG 2008/2011 9999 SCT008 BKN012
Panamá
TAF MPTO 190500Z 1906/2012 00000KT 9999 SCT018 TEMPO 1915/1919 16006KT TEMPO 1920/1923 02012KT
Paraguay
TAF SGAS 190438Z 1906/2006 VRB03KT VCTS SCT030 FEW040CB TX36/1919Z TN26/1909Z PROB30 1908/1911 10002KT 8000 TSRA SCT027 FEW040CB BECMG 1912/1914 03011KT 9999 SCT027 PROB30 TEMPO 1918/1920 8000 SHRA BKN027 FEW040TCU BECMG 1921/2000 VRB04KT 9999 FEW030

* Datos extraidos del Text DataServer de la NOAA (NOAA TEXT DATA SERVER)

Instituto Uruguayo de Meteorología

Dr. Javier Barrios Amorín 1488 - CP 11200
1895 int 108

Montevideo - Uruguay